Time;durP1;ratioP1;P1;durP2;ratioP2;P2;SDS_P1;SDS_P2;PMS_P1;PMS_P2;Temp;Humidity;BMP_temperature;BMP_pressure;BME280_temperature;BME280_humidity;BME280_pressure;Samples;Min_cycle;Max_cycle;Signal;HPM_P1;HPM_P2
2023/02/18 00:01:23;;;;;;;9.70;1.45;;;7.20;99.90;;;-148.53;100.00;63986.66;5001556;28;20343;-77
2023/02/18 00:03:49;;;;;;;10.93;1.30;;;7.20;99.90;;;-148.53;100.00;63986.66;5011207;28;20049;-77
2023/02/18 00:06:22;;;;;;;10.38;1.00;;;7.20;99.90;;;-148.53;100.00;63986.66;5008701;28;20172;-77
2023/02/18 00:08:49;;;;;;;11.45;1.50;;;7.20;99.90;;;-148.53;100.00;63986.66;5008112;28;20052;-77
2023/02/18 00:11:17;;;;;;;8.13;1.33;;;7.30;99.90;;;-148.53;100.00;63986.66;4998187;28;20774;-76
2023/02/18 00:13:49;;;;;;;7.20;1.20;;;7.20;99.90;;;-148.53;100.00;63986.66;5008246;28;20056;-75
2023/02/18 00:16:15;;;;;;;11.32;1.50;;;7.20;99.90;;;-148.53;100.00;63986.66;5000640;28;20161;-77
2023/02/18 00:18:40;;;;;;;10.20;1.52;;;7.20;99.90;;;-148.53;100.00;63986.66;5002316;28;20379;-76
2023/02/18 00:21:08;;;;;;;6.85;1.30;;;7.20;99.90;;;-148.53;100.00;63986.66;5005483;28;20026;-77
2023/02/18 00:23:34;;;;;;;8.77;1.20;;;7.20;99.90;;;-148.53;100.00;63986.66;5002172;28;20342;-77
2023/02/18 00:26:07;;;;;;;7.65;1.15;;;7.20;99.90;;;-148.53;100.00;63986.66;5010345;28;20727;-76
2023/02/18 00:28:33;;;;;;;7.30;1.40;;;7.20;99.90;;;-148.53;100.00;63986.66;5007673;28;20520;-77
2023/02/18 00:31:05;;;;;;;7.30;1.10;;;7.20;99.90;;;-148.53;100.00;63986.66;5007554;28;20507;-77
2023/02/18 00:33:31;;;;;;;8.52;1.35;;;7.20;99.90;;;-148.53;100.00;63986.66;5001480;28;20053;-76
2023/02/18 00:36:04;;;;;;;10.57;1.92;;;7.20;99.90;;;-148.53;100.00;63986.66;5007799;28;20034;-77
2023/02/18 00:38:30;;;;;;;7.25;1.30;;;7.30;99.90;;;-148.53;100.00;63986.66;5006266;28;20513;-77
2023/02/18 00:40:56;;;;;;;8.68;1.27;;;7.30;99.90;;;-148.53;100.00;63986.66;5001887;28;20112;-78
2023/02/18 00:43:21;;;;;;;8.20;1.88;;;7.30;99.90;;;-148.53;100.00;63986.66;5002535;28;20128;-77
2023/02/18 00:45:47;;;;;;;7.30;1.55;;;7.30;99.90;;;-148.53;100.00;63986.66;4996426;28;20045;-77
2023/02/18 00:48:13;;;;;;;9.07;1.48;;;7.40;99.90;;;-148.53;100.00;63986.66;4999277;28;20178;-77
2023/02/18 00:50:40;;;;;;;6.43;1.38;;;7.40;99.90;;;-148.53;100.00;63986.66;5004135;28;20117;-76
2023/02/18 00:53:06;;;;;;;9.32;2.28;;;7.40;99.90;;;-148.53;100.00;63986.66;5000219;28;20382;-75
2023/02/18 00:55:31;;;;;;;6.57;1.40;;;7.40;99.90;;;-148.53;100.00;63986.66;5013243;28;20049;-77
2023/02/18 00:57:57;;;;;;;8.63;1.52;;;7.30;99.90;;;-148.53;100.00;63986.66;5003848;28;20394;-78
2023/02/18 01:00:24;;;;;;;5.30;0.93;;;7.40;99.90;;;-148.53;100.00;63986.66;5002422;28;20122;-77
2023/02/18 01:02:53;;;;;;;6.72;1.60;;;7.40;99.90;;;-148.53;100.00;63986.66;4994597;28;20046;-78
2023/02/18 01:05:20;;;;;;;12.68;1.92;;;7.30;99.90;;;-148.53;100.00;63986.66;4991139;28;20466;-77
2023/02/18 01:07:46;;;;;;;11.18;1.52;;;7.30;99.90;;;-148.53;100.00;63986.66;5002178;28;20109;-76
2023/02/18 01:10:12;;;;;;;10.55;1.48;;;7.30;99.90;;;-148.53;100.00;63986.66;5005820;28;20065;-76
2023/02/18 01:12:38;;;;;;;9.60;1.42;;;7.30;99.90;;;-148.53;100.00;63986.66;4984348;28;20514;-76
2023/02/18 01:15:05;;;;;;;9.52;1.80;;;7.40;99.90;;;-148.53;100.00;63986.66;5011058;28;20057;-77
2023/02/18 01:17:32;;;;;;;6.73;1.80;;;7.40;99.90;;;-148.53;100.00;63986.66;5018043;28;20038;-77
2023/02/18 01:19:58;;;;;;;9.32;1.35;;;7.50;99.90;;;-148.53;100.00;63986.66;5008264;28;20031;-76
2023/02/18 01:22:24;;;;;;;7.68;1.25;;;7.60;99.90;;;-148.53;100.00;63986.66;5007652;28;20505;-76
2023/02/18 01:24:50;;;;;;;7.13;1.25;;;7.50;99.90;;;-148.53;100.00;63986.66;4993751;28;20030;-75
2023/02/18 01:27:16;;;;;;;7.47;1.17;;;7.60;99.90;;;-148.53;100.00;63986.66;5006144;28;20026;-76
2023/02/18 01:29:42;;;;;;;10.27;1.58;;;7.60;99.90;;;-148.53;100.00;63986.66;4990346;28;20112;-76
2023/02/18 01:32:07;;;;;;;7.93;1.30;;;7.70;99.90;;;-148.53;100.00;63986.66;5016564;28;20044;-76
2023/02/18 01:34:33;;;;;;;10.13;2.05;;;7.70;99.90;;;-148.53;100.00;63986.66;5005618;28;20034;-76
2023/02/18 01:36:59;;;;;;;6.78;1.17;;;7.70;99.90;;;-148.53;100.00;63986.66;5000238;28;20038;-76
2023/02/18 01:39:25;;;;;;;7.53;1.48;;;7.70;99.90;;;-148.53;100.00;63986.66;5009587;28;20496;-75
2023/02/18 01:41:51;;;;;;;7.07;1.20;;;7.80;99.90;;;-148.53;100.00;63986.66;5004098;28;20107;-76
2023/02/18 01:44:26;;;;;;;6.97;1.20;;;7.80;99.90;;;-148.53;100.00;63986.66;4998551;28;20486;-75
2023/02/18 01:46:53;;;;;;;10.38;1.67;;;7.80;99.90;;;-148.53;100.00;63986.66;5000672;28;20053;-76
2023/02/18 01:49:36;;;;;;;9.65;1.45;;;7.80;99.90;;;-148.53;100.00;63986.66;5005038;28;21296;-76
2023/02/18 01:52:11;;;;;;;5.90;1.02;;;7.80;99.90;;;-148.53;100.00;63986.66;5001053;28;20038;-75
2023/02/18 01:54:44;;;;;;;9.82;2.50;;;7.80;99.90;;;-148.53;100.00;63986.66;4992179;28;20033;-76
2023/02/18 01:57:34;;;;;;;8.18;1.42;;;7.90;99.90;;;-148.53;100.00;63986.66;5007908;28;20052;-76
2023/02/18 02:00:16;;;;;;;6.13;1.02;;;7.90;99.90;;;-148.53;100.00;63986.66;5005556;28;20041;-76
2023/02/18 02:02:48;;;;;;;8.13;1.55;;;7.90;99.90;;;-148.53;100.00;63986.66;5000073;28;20042;-75
2023/02/18 02:05:16;;;;;;;8.82;1.67;;;7.90;99.90;;;-148.53;100.00;63986.66;5000073;28;20485;-76
2023/02/18 02:07:43;;;;;;;6.63;1.37;;;7.90;99.90;;;-148.53;100.00;63986.66;5012386;28;20034;-76
2023/02/18 02:10:12;;;;;;;8.02;1.73;;;7.90;99.90;;;-148.53;100.00;63986.66;5007988;28;20615;-78
2023/02/18 02:13:51;;;;;;;7.70;2.13;;;8.00;99.90;;;-148.53;100.00;63986.66;5008376;28;20074;-76
2023/02/18 02:17:03;;;;;;;8.45;1.92;;;8.00;99.90;;;-148.53;100.00;63986.66;5028068;28;20070;-76
2023/02/18 02:20:29;;;;;;;6.63;1.52;;;8.00;99.90;;;-148.53;100.00;63986.66;5035166;28;20585;-77
2023/02/18 02:23:54;;;;;;;7.57;1.33;;;8.10;99.90;;;-148.53;100.00;63986.66;5005327;28;20080;-76
2023/02/18 02:26:49;;;;;;;8.07;1.30;;;8.00;99.90;;;-148.53;100.00;63986.66;5009535;28;20065;-77
2023/02/18 02:29:55;;;;;;;8.65;1.25;;;8.10;99.90;;;-148.53;100.00;63986.66;4991768;28;20034;-76
2023/02/18 02:32:51;;;;;;;9.95;1.50;;;8.10;99.90;;;-148.53;100.00;63986.66;5015341;28;20038;-77
2023/02/18 02:35:24;;;;;;;8.15;1.60;;;8.10;99.90;;;-148.53;100.00;63986.66;5003210;28;20385;-77
2023/02/18 02:38:11;;;;;;;9.60;1.33;;;8.10;99.90;;;-148.53;100.00;63986.66;5017712;28;20038;-77
2023/02/18 02:41:09;;;;;;;5.25;1.15;;;8.10;99.90;;;-148.53;100.00;63986.66;4993052;28;20035;-77
2023/02/18 02:43:46;;;;;;;9.10;1.60;;;8.20;99.90;;;-148.53;100.00;63986.66;5007766;28;20044;-76
2023/02/18 02:46:25;;;;;;;7.82;1.30;;;8.20;99.90;;;-148.53;100.00;63986.66;4995057;28;20066;-77
2023/02/18 02:49:07;;;;;;;13.07;1.73;;;8.20;99.90;;;-148.53;100.00;63986.66;4991707;28;20122;-77
2023/02/18 02:51:56;;;;;;;8.68;1.50;;;8.20;99.90;;;-148.53;100.00;63986.66;4998258;28;20100;-77
2023/02/18 02:54:25;;;;;;;9.23;1.88;;;8.20;99.90;;;-148.53;100.00;63986.66;4991424;28;20041;-77
2023/02/18 02:57:06;;;;;;;9.55;1.50;;;8.20;99.90;;;-148.53;100.00;63986.66;5004060;28;20041;-75
2023/02/18 02:59:39;;;;;;;6.20;1.02;;;8.20;99.90;;;-148.53;100.00;63986.66;4990158;28;20211;-75
2023/02/18 03:02:46;;;;;;;9.98;1.55;;;8.20;99.90;;;-148.53;100.00;63986.66;5007031;28;20354;-75
2023/02/18 03:05:55;;;;;;;9.98;1.63;;;8.20;99.90;;;-148.53;100.00;63986.66;5013431;28;20042;-75
2023/02/18 03:08:54;;;;;;;10.18;1.65;;;8.20;99.90;;;-148.53;100.00;63986.66;5018225;28;20037;-75
2023/02/18 03:11:20;;;;;;;11.40;1.80;;;8.20;99.90;;;-148.53;100.00;63986.66;5012047;28;20157;-76
2023/02/18 03:14:01;;;;;;;7.65;1.83;;;8.20;99.90;;;-148.53;100.00;63986.66;5004546;28;20062;-75
2023/02/18 03:17:36;;;;;;;11.50;2.05;;;8.20;99.90;;;-148.53;100.00;63986.66;4994965;28;20046;-75
2023/02/18 03:20:12;;;;;;;12.35;1.98;;;8.30;99.90;;;-148.53;100.00;63986.66;5002670;28;20056;-76
2023/02/18 03:22:47;;;;;;;11.23;2.00;;;8.20;99.90;;;-148.53;100.00;63986.66;5004812;28;20034;-76
2023/02/18 03:25:15;;;;;;;10.07;2.00;;;8.20;99.90;;;-148.53;100.00;63986.66;5006736;28;20034;-75
2023/02/18 03:27:58;;;;;;;9.35;2.13;;;8.20;99.90;;;-148.53;100.00;63986.66;4995940;28;20053;-75
2023/02/18 03:30:31;;;;;;;7.50;2.00;;;8.20;99.90;;;-148.53;100.00;63986.66;5010842;28;20046;-75
2023/02/18 03:33:03;;;;;;;9.57;2.35;;;8.10;99.90;;;-148.53;100.00;63986.66;5005021;28;20027;-75
2023/02/18 03:35:29;;;;;;;11.13;2.20;;;8.10;99.90;;;-148.53;100.00;63986.66;5007625;28;20081;-75
2023/02/18 03:38:04;;;;;;;9.35;2.17;;;8.00;99.90;;;-148.53;100.00;63986.66;5025700;28;20029;-75
2023/02/18 03:40:31;;;;;;;11.27;2.67;;;8.00;99.90;;;-148.53;100.00;63986.66;5000978;28;20513;-75
2023/02/18 03:42:58;;;;;;;10.73;2.42;;;7.90;99.90;;;-148.53;100.00;63986.66;4994463;28;20037;-75
2023/02/18 03:45:26;;;;;;;10.05;2.17;;;7.90;99.90;;;-148.53;100.00;63986.66;5008299;28;20042;-75
2023/02/18 03:47:52;;;;;;;11.27;2.60;;;7.90;99.90;;;-148.53;100.00;63986.66;4998596;28;20053;-75
2023/02/18 03:50:18;;;;;;;11.27;2.75;;;7.90;99.90;;;-148.53;100.00;63986.66;5010012;28;20034;-74
2023/02/18 03:52:44;;;;;;;11.35;2.45;;;7.90;99.90;;;-148.53;100.00;63986.66;5013565;28;20448;-75
2023/02/18 03:55:10;;;;;;;8.23;2.40;;;7.90;99.90;;;-148.53;100.00;63986.66;5000077;28;20433;-75
2023/02/18 03:57:36;;;;;;;16.20;2.70;;;7.90;99.90;;;-148.53;100.00;63986.66;5007568;28;20030;-75
2023/02/18 04:00:05;;;;;;;11.73;3.05;;;7.90;99.90;;;-148.53;100.00;63986.66;5014080;28;20063;-75
2023/02/18 04:02:39;;;;;;;12.98;2.95;;;7.90;99.90;;;-148.53;100.00;63986.66;5008576;28;20509;-74
2023/02/18 04:05:05;;;;;;;12.02;2.75;;;8.00;99.90;;;-148.53;100.00;63986.66;5002970;28;20045;-74
2023/02/18 04:07:32;;;;;;;10.43;2.63;;;8.00;99.90;;;-148.53;100.00;63986.66;5007158;28;20046;-75
2023/02/18 04:09:57;;;;;;;8.93;2.60;;;7.90;99.90;;;-148.53;100.00;63986.66;5011796;28;20049;-74
2023/02/18 04:12:23;;;;;;;13.27;3.13;;;7.90;99.90;;;-148.53;100.00;63986.66;5012655;28;20342;-75
2023/02/18 04:14:49;;;;;;;15.27;3.90;;;7.90;99.90;;;-148.53;100.00;63986.66;5025650;28;20476;-75
2023/02/18 04:17:18;;;;;;;14.50;4.22;;;7.90;99.90;;;-148.53;100.00;63986.66;4998358;28;20397;-75
2023/02/18 04:19:43;;;;;;;12.30;4.05;;;8.00;99.90;;;-148.53;100.00;63986.66;5005140;28;20042;-75
2023/02/18 04:22:09;;;;;;;16.23;4.45;;;8.00;99.90;;;-148.53;100.00;63986.66;4997823;28;20034;-75
2023/02/18 04:24:35;;;;;;;15.05;4.30;;;8.00;99.90;;;-148.53;100.00;63986.66;5013690;28;20486;-75
2023/02/18 04:27:01;;;;;;;16.08;4.15;;;7.90;99.90;;;-148.53;100.00;63986.66;5000823;28;20457;-75
2023/02/18 04:29:26;;;;;;;17.63;5.55;;;7.90;99.90;;;-148.53;100.00;63986.66;5000596;28;20030;-75
2023/02/18 04:31:52;;;;;;;15.23;4.65;;;7.90;99.90;;;-148.53;100.00;63986.66;5006490;28;20053;-75
2023/02/18 04:34:18;;;;;;;18.88;5.97;;;7.90;99.90;;;-148.53;100.00;63986.66;5007365;28;20050;-74
2023/02/18 04:36:43;;;;;;;12.40;5.00;;;7.90;99.90;;;-148.53;100.00;63986.66;5013959;28;20042;-75
2023/02/18 04:39:09;;;;;;;14.77;5.78;;;7.90;99.90;;;-148.53;100.00;63986.66;5000620;28;20541;-76
2023/02/18 04:41:35;;;;;;;19.48;6.68;;;7.80;99.90;;;-148.53;100.00;63986.66;5003681;28;20165;-76
2023/02/18 04:44:00;;;;;;;21.80;6.75;;;7.70;99.90;;;-148.53;100.00;63986.66;5010209;28;20041;-76
2023/02/18 04:46:26;;;;;;;23.30;9.30;;;7.60;99.90;;;-148.53;100.00;63986.66;5000334;28;20046;-76
2023/02/18 04:48:52;;;;;;;25.02;9.73;;;7.60;99.90;;;-148.53;100.00;63986.66;5003998;28;20046;-76
2023/02/18 04:51:18;;;;;;;24.63;9.82;;;7.50;99.90;;;-148.53;100.00;63986.66;5007752;28;20030;-76
2023/02/18 04:53:44;;;;;;;27.70;11.30;;;7.40;99.90;;;-148.53;100.00;63986.66;5011596;28;20504;-76
2023/02/18 04:56:10;;;;;;;33.60;13.63;;;7.40;99.90;;;-148.53;100.00;63986.66;5000117;28;20172;-76
2023/02/18 04:58:36;;;;;;;27.13;12.77;;;7.40;99.90;;;-148.53;100.00;63986.66;5011459;28;20422;-76
2023/02/18 05:01:03;;;;;;;31.10;13.38;;;7.30;99.90;;;-148.53;100.00;63986.66;5002910;28;20040;-76
2023/02/18 05:03:30;;;;;;;30.98;13.25;;;7.30;99.90;;;-148.53;100.00;63986.66;5002135;28;20145;-76
2023/02/18 05:05:56;;;;;;;35.97;14.60;;;7.30;99.90;;;-148.53;100.00;63986.66;5009281;28;20038;-76
2023/02/18 05:08:22;;;;;;;30.60;13.52;;;7.20;99.90;;;-148.53;100.00;63986.66;4997556;28;20576;-76
2023/02/18 05:10:48;;;;;;;44.58;14.95;;;7.20;99.90;;;-148.53;100.00;63986.66;5005534;28;20034;-76
2023/02/18 05:13:14;;;;;;;40.58;14.88;;;7.20;99.90;;;-148.53;100.00;63986.66;5008716;28;20042;-75
2023/02/18 05:15:40;;;;;;;36.00;15.38;;;7.20;99.90;;;-148.53;100.00;63986.66;4998582;28;20108;-75
2023/02/18 05:18:06;;;;;;;37.90;16.02;;;7.10;99.90;;;-148.53;100.00;63986.66;5005925;28;20038;-76
2023/02/18 05:20:33;;;;;;;42.25;15.50;;;7.10;99.90;;;-148.53;100.00;63986.66;5001353;28;20137;-77
2023/02/18 05:22:59;;;;;;;38.40;15.43;;;7.10;99.90;;;-148.53;100.00;63986.66;5005505;28;20374;-76
2023/02/18 05:25:25;;;;;;;35.17;14.18;;;7.20;99.90;;;-148.53;100.00;63986.66;5007095;28;20346;-76
2023/02/18 05:27:50;;;;;;;38.92;16.00;;;7.20;99.90;;;-148.53;100.00;63986.66;5006397;28;20091;-76
2023/02/18 05:30:17;;;;;;;34.47;14.77;;;7.20;99.90;;;-148.53;100.00;63986.66;5004337;28;20394;-76
2023/02/18 05:32:42;;;;;;;43.65;15.60;;;7.20;99.90;;;-148.53;100.00;63986.66;5010827;28;20117;-75
2023/02/18 05:35:08;;;;;;;39.05;15.48;;;7.20;99.90;;;-148.53;100.00;63986.66;5009815;28;20375;-76
2023/02/18 05:37:34;;;;;;;42.28;17.70;;;7.20;99.90;;;-148.53;100.00;63986.66;5004540;28;20054;-76
2023/02/18 05:40:00;;;;;;;47.70;17.55;;;7.10;99.90;;;-148.53;100.00;63986.66;5002921;28;20182;-76
2023/02/18 05:42:25;;;;;;;40.30;17.00;;;7.10;99.90;;;-148.53;100.00;63986.66;5006414;28;20045;-75
2023/02/18 05:44:51;;;;;;;48.00;17.45;;;7.10;99.90;;;-148.53;100.00;63986.66;5003916;28;20049;-75
2023/02/18 05:47:17;;;;;;;50.00;17.10;;;7.20;99.90;;;-148.53;100.00;63986.66;5018498;28;20046;-75
2023/02/18 05:49:43;;;;;;;50.25;17.10;;;7.20;99.90;;;-148.53;100.00;63986.66;5009763;28;20168;-75
2023/02/18 05:52:11;;;;;;;47.00;17.48;;;7.10;99.90;;;-148.53;100.00;63986.66;5006357;28;20038;-75
2023/02/18 05:54:38;;;;;;;37.55;15.95;;;7.10;99.90;;;-148.53;100.00;63986.66;4988291;28;20049;-75
2023/02/18 05:57:04;;;;;;;44.33;17.50;;;7.10;99.90;;;-148.53;100.00;63986.66;4987736;28;20041;-74
2023/02/18 05:59:30;;;;;;;44.08;16.02;;;7.10;99.90;;;-148.53;100.00;63986.66;5005976;28;20045;-76
2023/02/18 06:01:56;;;;;;;40.30;16.70;;;7.10;99.90;;;-148.53;100.00;63986.66;5002639;28;20133;-75
2023/02/18 06:04:22;;;;;;;37.45;16.55;;;7.10;99.90;;;-148.53;100.00;63986.66;5017031;28;20037;-75
2023/02/18 06:06:48;;;;;;;41.47;17.20;;;7.10;99.90;;;-148.53;100.00;63986.66;5003234;28;20041;-76
2023/02/18 06:09:14;;;;;;;39.80;16.15;;;7.10;99.90;;;-148.53;100.00;63986.66;5006162;28;20037;-75
2023/02/18 06:11:39;;;;;;;42.28;17.10;;;7.10;99.90;;;-148.53;100.00;63986.66;5002785;28;20044;-75
2023/02/18 06:14:05;;;;;;;43.75;17.67;;;7.10;99.90;;;-148.53;100.00;63986.66;4998593;28;20034;-76
2023/02/18 06:16:32;;;;;;;45.05;17.80;;;7.10;99.90;;;-148.53;100.00;63986.66;5010020;28;20121;-75
2023/02/18 06:18:58;;;;;;;45.33;18.90;;;7.10;99.90;;;-148.53;100.00;63986.66;5000862;28;20046;-76
2023/02/18 06:21:24;;;;;;;49.05;18.42;;;7.10;99.90;;;-148.53;100.00;63986.66;5001515;28;20038;-75
2023/02/18 06:23:50;;;;;;;44.45;19.17;;;7.10;99.90;;;-148.53;100.00;63986.66;5004384;28;20045;-75
2023/02/18 06:26:16;;;;;;;49.75;20.60;;;7.10;99.90;;;-148.53;100.00;63986.66;5006121;28;20042;-75
2023/02/18 06:28:41;;;;;;;54.33;20.33;;;7.10;99.90;;;-148.53;100.00;63986.66;5005136;28;20050;-75
2023/02/18 06:31:07;;;;;;;48.67;19.80;;;7.20;99.90;;;-148.53;100.00;63986.66;5005416;28;20033;-75
2023/02/18 06:33:33;;;;;;;79.07;21.55;;;7.20;99.90;;;-148.53;100.00;63986.66;5004003;28;20045;-75
2023/02/18 06:36:07;;;;;;;66.25;22.27;;;7.20;99.90;;;-148.53;100.00;63986.66;5002656;28;20129;-75
2023/02/18 06:38:34;;;;;;;54.28;19.42;;;7.20;99.90;;;-148.53;100.00;63986.66;5004367;28;20053;-75
2023/02/18 06:41:01;;;;;;;46.58;20.10;;;7.30;99.90;;;-148.53;100.00;63986.66;5005942;28;20092;-75
2023/02/18 06:43:27;;;;;;;45.55;19.05;;;7.30;99.90;;;-148.53;100.00;63986.66;5002000;28;20053;-75
2023/02/18 06:45:52;;;;;;;43.70;18.83;;;7.40;99.90;;;-148.53;100.00;63986.66;5000614;28;20042;-74
2023/02/18 06:48:18;;;;;;;44.60;18.85;;;7.40;99.90;;;-148.53;100.00;63986.66;5003385;28;20050;-74
2023/02/18 06:50:44;;;;;;;44.33;18.77;;;7.40;99.90;;;-148.53;100.00;63986.66;5001511;28;20034;-75
2023/02/18 06:53:11;;;;;;;44.10;18.20;;;7.50;99.90;;;-148.53;100.00;63986.66;5004245;28;20038;-75
2023/02/18 06:55:37;;;;;;;45.53;18.38;;;7.50;99.90;;;-148.53;100.00;63986.66;5000936;28;20030;-75
2023/02/18 06:58:04;;;;;;;45.22;17.67;;;7.50;99.90;;;-148.53;100.00;63986.66;5003018;28;20037;-75
2023/02/18 07:00:30;;;;;;;48.15;19.75;;;7.60;99.90;;;-148.53;100.00;63986.66;5007818;28;20041;-75
2023/02/18 07:02:55;;;;;;;51.35;20.58;;;7.60;99.90;;;-148.53;100.00;63986.66;5004736;28;20045;-76
2023/02/18 07:05:21;;;;;;;44.30;18.52;;;7.60;99.90;;;-148.53;100.00;63986.66;5008742;28;20091;-75
2023/02/18 07:07:47;;;;;;;49.80;20.58;;;7.70;99.90;;;-148.53;100.00;63986.66;5008032;28;20048;-74
2023/02/18 07:10:12;;;;;;;47.08;19.08;;;7.70;99.90;;;-148.53;100.00;63986.66;5002506;28;20037;-74
2023/02/18 07:12:38;;;;;;;49.05;19.95;;;7.70;99.90;;;-148.53;100.00;63986.66;5000670;28;20288;-75
2023/02/18 07:15:04;;;;;;;46.50;19.38;;;7.80;99.90;;;-148.53;100.00;63986.66;5004459;28;20041;-75
2023/02/18 07:17:30;;;;;;;49.92;19.52;;;7.80;99.90;;;-148.53;100.00;63986.66;5004203;28;20549;-75
2023/02/18 07:19:56;;;;;;;47.05;19.05;;;7.80;99.90;;;-148.53;100.00;63986.66;5021297;28;20037;-75
2023/02/18 07:22:22;;;;;;;49.38;19.00;;;7.80;99.90;;;-148.53;100.00;63986.66;5000043;28;20042;-75
2023/02/18 07:24:52;;;;;;;42.53;17.65;;;7.90;99.90;;;-148.53;100.00;63986.66;5003560;28;20030;-75
2023/02/18 07:27:19;;;;;;;47.22;18.55;;;7.90;99.90;;;-148.53;100.00;63986.66;5004303;28;20096;-75
2023/02/18 07:29:45;;;;;;;41.55;16.88;;;7.90;99.90;;;-148.53;100.00;63986.66;4998147;28;20040;-75
2023/02/18 07:32:17;;;;;;;46.17;17.95;;;7.90;99.90;;;-148.53;100.00;63986.66;5000083;28;20125;-75
2023/02/18 07:34:43;;;;;;;42.28;18.00;;;7.90;99.90;;;-148.53;100.00;63986.66;4994722;28;20460;-75
2023/02/18 07:37:09;;;;;;;43.00;18.23;;;8.00;99.90;;;-148.53;100.00;63986.66;5001943;28;20235;-75
2023/02/18 07:39:38;;;;;;;38.13;17.02;;;8.00;99.90;;;-148.53;100.00;63986.66;5012199;28;20556;-75
2023/02/18 07:42:04;;;;;;;40.30;17.60;;;8.00;99.90;;;-148.53;100.00;63986.66;5020807;28;20042;-73
2023/02/18 07:44:31;;;;;;;36.75;15.93;;;8.00;99.90;;;-148.53;100.00;63986.66;5003768;28;20030;-73
2023/02/18 07:46:57;;;;;;;39.85;16.90;;;8.00;99.90;;;-148.53;100.00;63986.66;5010525;28;20049;-74
2023/02/18 07:49:23;;;;;;;39.55;16.23;;;8.10;99.90;;;-148.53;100.00;63986.66;5005887;28;20085;-73
2023/02/18 07:51:49;;;;;;;36.38;15.57;;;8.10;99.90;;;-148.53;100.00;63986.66;5003555;28;20054;-73
2023/02/18 07:54:17;;;;;;;35.53;15.55;;;8.20;99.90;;;-148.53;100.00;63986.66;5003052;28;20116;-74
2023/02/18 07:56:44;;;;;;;;;;;8.20;99.90;;;-148.53;100.00;63986.66;5008832;28;20492;-74
2023/02/18 07:59:11;;;;;;;32.78;14.40;;;8.20;99.90;;;-148.53;100.00;63986.66;5007188;28;19918;-74
2023/02/18 08:01:38;;;;;;;32.72;14.27;;;8.30;99.90;;;-148.53;100.00;63986.66;5008613;28;20065;-74
2023/02/18 08:04:04;;;;;;;33.20;13.35;;;8.40;99.90;;;-148.53;100.00;63986.66;5006256;28;20064;-74
2023/02/18 08:06:38;;;;;;;35.78;12.95;;;8.40;99.90;;;-148.53;100.00;63986.66;5002430;28;20088;-74
2023/02/18 08:09:05;;;;;;;32.83;12.95;;;8.50;99.90;;;-148.53;100.00;63986.66;5001212;28;20113;-74
2023/02/18 08:11:32;;;;;;;34.53;12.87;;;8.60;99.90;;;-148.53;100.00;63986.66;5005642;28;20061;-75
2023/02/18 08:13:58;;;;;;;32.97;12.52;;;8.70;99.90;;;-148.53;100.00;63986.66;5002924;28;20715;-74
2023/02/18 08:16:25;;;;;;;28.73;11.15;;;8.80;99.90;;;-148.53;100.00;63986.66;5004693;28;20149;-73
2023/02/18 08:18:51;;;;;;;27.13;10.75;;;8.90;99.90;;;-148.53;100.00;63986.66;5011248;28;20441;-74
2023/02/18 08:21:20;;;;;;;25.27;10.30;;;8.90;99.90;;;-148.53;100.00;63986.66;5008483;28;20077;-74
2023/02/18 08:23:46;;;;;;;27.65;10.80;;;9.10;99.90;;;-148.53;100.00;63986.66;5009502;28;20030;-74
2023/02/18 08:26:13;;;;;;;23.38;8.57;;;9.20;99.90;;;-148.53;100.00;63986.66;5006757;28;20451;-73
2023/02/18 08:28:41;;;;;;;20.50;8.00;;;9.30;99.90;;;-148.53;100.00;63986.66;5005080;28;20037;-74
2023/02/18 08:31:20;;;;;;;19.55;7.75;;;9.40;99.90;;;-148.53;100.00;63986.66;5005262;28;20076;-74
2023/02/18 08:33:47;;;;;;;21.63;7.30;;;9.50;99.90;;;-148.53;100.00;63986.66;5006002;28;20073;-74
2023/02/18 08:36:13;;;;;;;16.20;6.45;;;9.50;99.90;;;-148.53;100.00;63986.66;5000036;28;20048;-74
2023/02/18 08:38:38;;;;;;;15.65;6.53;;;9.50;99.90;;;-148.53;100.00;63986.66;5005349;28;20041;-74
2023/02/18 08:41:07;;;;;;;13.38;6.00;;;9.60;99.90;;;-148.53;100.00;63986.66;5007942;28;20092;-74
2023/02/18 08:43:32;;;;;;;13.85;5.13;;;9.60;99.90;;;-148.53;100.00;63986.66;5003360;28;20038;-75
2023/02/18 08:45:59;;;;;;;11.23;4.78;;;9.60;99.90;;;-148.53;100.00;63986.66;4994337;28;20494;-75
2023/02/18 08:48:25;;;;;;;11.93;4.78;;;9.70;99.90;;;-148.53;100.00;63986.66;5008447;28;20407;-75
2023/02/18 08:50:51;;;;;;;8.90;3.70;;;9.70;99.90;;;-148.53;100.00;63986.66;5005566;28;20053;-76
2023/02/18 08:53:17;;;;;;;6.93;3.33;;;9.70;99.90;;;-148.53;100.00;63986.66;5003359;28;20043;-75
2023/02/18 08:55:43;;;;;;;5.93;2.70;;;9.80;99.90;;;-148.53;100.00;63986.66;5000782;28;20042;-74
2023/02/18 08:58:10;;;;;;;5.30;2.30;;;9.90;99.90;;;-148.53;100.00;63986.66;5007792;28;20073;-77
2023/02/18 09:00:37;;;;;;;6.03;2.00;;;9.90;99.90;;;-148.53;100.00;63986.66;5018687;28;20441;-76
2023/02/18 09:03:03;;;;;;;4.05;1.85;;;10.00;99.90;;;-148.53;100.00;63986.66;5001273;28;20030;-76
2023/02/18 09:05:29;;;;;;;3.72;1.90;;;10.10;99.90;;;-148.53;100.00;63986.66;5006074;28;20394;-74
2023/02/18 09:07:55;;;;;;;4.45;2.20;;;10.10;99.90;;;-148.53;100.00;63986.66;5004644;28;20436;-73
2023/02/18 09:10:21;;;;;;;3.70;1.83;;;10.20;99.90;;;-148.53;100.00;63986.66;5005937;28;20030;-74
2023/02/18 09:12:47;;;;;;;5.00;2.15;;;10.30;99.90;;;-148.53;100.00;63986.66;5005842;28;20054;-75
2023/02/18 09:15:13;;;;;;;3.13;1.67;;;10.30;99.90;;;-148.53;100.00;63986.66;5000914;28;20042;-76
2023/02/18 09:17:39;;;;;;;4.40;2.20;;;10.30;99.90;;;-148.53;100.00;63986.66;5001530;28;20050;-75
2023/02/18 09:20:06;;;;;;;3.85;1.88;;;10.40;99.90;;;-148.53;100.00;63986.66;5002065;28;20109;-76
2023/02/18 09:22:32;;;;;;;3.60;1.83;;;10.40;99.90;;;-148.53;100.00;63986.66;5001234;28;20227;-74
2023/02/18 09:24:58;;;;;;;4.28;1.83;;;10.40;99.90;;;-148.53;100.00;63986.66;5003365;28;20030;-75
2023/02/18 09:27:23;;;;;;;3.33;1.83;;;10.50;99.90;;;-148.53;100.00;63986.66;5007751;28;20082;-76
2023/02/18 09:29:49;;;;;;;4.22;1.90;;;10.50;99.90;;;-148.53;100.00;63986.66;5009211;28;20029;-77
2023/02/18 09:32:17;;;;;;;3.13;1.60;;;10.60;99.90;;;-148.53;100.00;63986.66;5004523;28;20042;-77
2023/02/18 09:34:44;;;;;;;3.58;1.45;;;10.60;99.90;;;-148.53;100.00;63986.66;5008557;28;20042;-76
2023/02/18 09:37:10;;;;;;;2.85;1.23;;;10.70;99.90;;;-148.53;100.00;63986.66;5016665;28;20038;-76
2023/02/18 09:39:36;;;;;;;2.83;1.35;;;10.70;99.90;;;-148.53;100.00;63986.66;5005094;28;20122;-76
2023/02/18 09:42:13;;;;;;;3.33;1.10;;;10.70;99.90;;;-148.53;100.00;63986.66;5000224;28;20045;-76
2023/02/18 09:44:52;;;;;;;2.45;1.10;;;10.70;99.90;;;-148.53;100.00;63986.66;4996914;28;20474;-75
2023/02/18 09:47:36;;;;;;;1.88;0.90;;;10.80;99.90;;;-148.53;100.00;63986.66;5005786;28;20064;-76
2023/02/18 09:50:26;;;;;;;1.67;1.00;;;10.90;99.90;;;-148.53;100.00;63986.66;5003305;28;20046;-77
2023/02/18 09:52:52;;;;;;;;;;;10.90;99.90;;;-148.53;100.00;63986.66;5004252;28;20035;-77
2023/02/18 09:55:26;;;;;;;1.60;0.82;;;10.90;99.90;;;-148.53;100.00;63986.66;4999722;28;19917;-77
2023/02/18 09:57:58;;;;;;;2.20;0.90;;;11.00;99.90;;;-148.53;100.00;63986.66;5000505;28;20458;-77
2023/02/18 10:00:37;;;;;;;1.15;0.90;;;11.00;99.90;;;-148.53;100.00;63986.66;5001764;28;20038;-78
2023/02/18 10:03:15;;;;;;;1.92;1.00;;;11.00;99.90;;;-148.53;100.00;63986.66;4999374;28;20042;-77
2023/02/18 10:05:54;;;;;;;1.60;1.08;;;11.00;99.90;;;-148.53;100.00;63986.66;5010784;28;20034;-77
2023/02/18 10:08:27;;;;;;;2.35;1.20;;;11.10;99.90;;;-148.53;100.00;63986.66;5004965;28;20042;-78
2023/02/18 10:10:53;;;;;;;2.78;1.25;;;11.10;99.90;;;-148.53;100.00;63986.66;5007680;28;20067;-76
2023/02/18 10:13:24;;;;;;;3.05;1.20;;;11.10;99.90;;;-148.53;100.00;63986.66;4999600;28;20030;-77